メインページ
METAR-TAF:

METAR-TAF

空港 :

ワガドゥグー, ブルキナファソ

ワガドゥグー空港

緯度: 12-21N, 経度: 001-31W, 海抜: 316m

現時点の気象観測

当レポートは1時間37分前の00:00(UTC)に作成
北東の風 3kt
気温 22°C
湿度 23%
気圧 1015 hPa
視程: 4500m
広範な塵

METAR: DFFD 180000Z 05003KT 4500 DU NSC 22/00 Q1015 BECMG 6000 NSW

時間: 01:37 (01:37 UTC)

予報

当レポートは2時間37分前の23:00(UTC)に作成
予報は18日の 00時(UTC)から 19日の 06時(UTC)まで有効
東/北東の風 8kt
視程: 6000m
18日の 04時(UTC)から 18日の 06時(UTC)まで徐々に
視程: 2500m
広範な塵
18日の 07時(UTC)から 18日の 11時(UTC)まで一時的に
視程: 1400m
広範な塵
18日の 20時(UTC)から 18日の 22時(UTC)まで徐々に
視程: 6000m

TAF: DFFD 172300Z 1800/1906 07008KT 6000 NSC BECMG 1804/1806 2500 DU TEMPO 1807/1811 1400 DU BECMG 1820/1822 6000 NSW

4,000以上の空港の気象観測と天気予報(METAR報とTAF報)

利用可能な観測所は地図上に黄色い丸と赤い丸で示す。

丸の上にカーソルを重ねると観測所名を参照できる。

次にクリックすると気象観測と天気予報を参照できる。

マップの切り替え:黒色「×」印の緑ボタンをクリックして拡大、「-」印の緑ボタンをクリックして縮小、緑色の三角印をクリックして隣りの地図に切り替え


METAR-TAF: